Buchanan Airport

Jump to: basic info | weather | comments

Related pages: nearby airports | nearby navaids | notams | map

Basic information (top)

Codes: UCN GLBU
Location: lon 5.167650, lat -9.283470, elev 41 ft / 12 m msl
Status: small_airport
Scheduled airline service: no
Links: Wikipedia Mobile

Weather (top)

Current conditions for Roberts International Airport 91nm (168km) NW (rec'd 2014/09/20 17:30Z):

GLRB 201730Z 20008KT 9999 SCT014 FEW024CB SCT100 26/24 Q1012 RMK CB-N/NW

Airport forecast for Roberts International Airport 91nm (168km) NW (rec'd 2014/09/20 12:54Z):

TAF GLRB 201000Z 2012/2118 23010KT 9999 BKN016 
      TEMPO 2014/2019 20007KT 8000 -RA 
     FM202100 00000KT 9999 SCT014 FEW024CB 
      BECMG 2100/2102 VRB03KT 9000

Latest comments (top)

No comments yet for Buchanan Airport

More... (top)

See also NOTAMs and nearby airports and navaids, or visit the Buchanan Airport page at the main OurAirports website..